Time;durP1;ratioP1;P1;durP2;ratioP2;P2;SDS_P1;SDS_P2;PMS_P1;PMS_P2;Temp;Humidity;BMP_temperature;BMP_pressure;BME280_temperature;BME280_humidity;BME280_pressure;Samples;Min_cycle;Max_cycle;Signal;HPM_P1;HPM_P2
2023/04/10 00:01:17;;;;;;;18.05;13.18;;;;;;;6.83;81.35;101477.78;5064906;28;20109;-80
2023/04/10 00:03:43;;;;;;;15.88;12.45;;;;;;;6.84;81.61;101484.63;5065449;28;20074;-80
2023/04/10 00:06:11;;;;;;;16.65;12.13;;;;;;;6.80;81.70;101482.38;5065991;28;20081;-80
2023/04/10 00:08:38;;;;;;;17.42;12.25;;;;;;;6.78;81.89;101479.88;5066056;28;20143;-80
2023/04/10 00:11:08;;;;;;;15.45;12.30;;;;;;;6.67;82.25;101469.41;5065992;28;20080;-80
2023/04/10 00:13:34;;;;;;;17.70;12.90;;;;;;;6.64;82.34;101470.47;5058006;28;20068;-80
2023/04/10 00:16:01;;;;;;;17.60;13.68;;;;;;;6.60;82.58;101463.00;5066967;28;20067;-80
2023/04/10 00:18:28;;;;;;;16.90;12.65;;;;;;;6.52;82.99;101468.75;5065751;28;20072;-80
2023/04/10 00:20:55;;;;;;;18.23;13.68;;;;;;;6.52;83.26;101462.72;5065900;28;20049;-80
2023/04/10 00:23:23;;;;;;;20.83;12.98;;;;;;;6.49;83.39;101465.53;5066723;28;20056;-80
2023/04/10 00:25:49;;;;;;;17.20;12.75;;;;;;;6.54;83.72;101461.69;5067302;28;20056;-80
2023/04/10 00:28:16;;;;;;;19.20;13.85;;;;;;;6.52;83.90;101454.94;5066740;28;20084;-80
2023/04/10 00:30:43;;;;;;;17.38;13.23;;;;;;;6.53;83.95;101454.81;5066543;28;20079;-80
2023/04/10 00:33:11;;;;;;;17.60;13.20;;;;;;;6.42;84.07;101470.34;5066296;28;20517;-81
2023/04/10 00:35:38;;;;;;;17.30;12.73;;;;;;;6.43;84.44;101455.56;5066440;28;20053;-80
2023/04/10 00:38:04;;;;;;;18.60;13.63;;;;;;;6.44;84.06;101449.44;5066101;28;20091;-79
2023/04/10 00:40:32;;;;;;;18.42;13.35;;;;;;;6.39;84.11;101447.16;5066233;28;20052;-80
2023/04/10 00:42:59;;;;;;;17.27;12.68;;;;;;;6.35;84.48;101448.31;5069219;28;20052;-80
2023/04/10 00:45:26;;;;;;;18.58;13.30;;;;;;;6.33;84.53;101443.22;5074055;28;20048;-80
2023/04/10 00:47:53;;;;;;;16.77;13.00;;;;;;;6.37;84.69;101445.63;5070345;28;20048;-80
2023/04/10 00:50:21;;;;;;;16.75;13.70;;;;;;;6.43;84.71;101437.38;5067810;28;20053;-80
2023/04/10 00:52:48;;;;;;;17.95;13.00;;;;;;;6.44;84.61;101431.25;5067853;28;20049;-80
2023/04/10 00:55:15;;;;;;;20.88;13.00;;;;;;;6.43;84.79;101429.59;5067277;28;20060;-80
2023/04/10 00:57:45;;;;;;;17.48;12.90;;;;;;;6.46;85.18;101437.16;5068227;28;20056;-80
2023/04/10 01:00:13;;;;;;;17.35;13.40;;;;;;;6.46;84.79;101416.38;5067822;28;20045;-79
2023/04/10 01:02:40;;;;;;;19.25;13.50;;;;;;;6.46;85.09;101421.56;5068087;28;20088;-80
2023/04/10 01:05:08;;;;;;;19.92;13.52;;;;;;;6.37;85.26;101417.84;5067706;28;20049;-79
2023/04/10 01:07:44;;;;;;;17.10;12.93;;;;;;;6.40;85.45;101424.59;5057187;28;20497;-79
2023/04/10 01:10:17;;;;;;;18.75;13.25;;;;;;;6.40;85.59;101422.00;5063991;28;20052;-80
2023/04/10 01:12:55;;;;;;;19.45;13.52;;;;;;;6.37;85.95;101420.44;5064574;28;20079;-81
2023/04/10 01:15:25;;;;;;;16.67;13.15;;;;;;;6.37;85.86;101420.44;5063475;28;20052;-81
2023/04/10 01:18:00;;;;;;;18.42;13.88;;;;;;;6.25;85.92;101416.94;5064138;28;20045;-79
2023/04/10 01:20:31;;;;;;;19.75;14.15;;;;;;;6.27;86.11;101420.25;5064375;28;20048;-79
2023/04/10 01:23:41;;;;;;;18.13;13.73;;;;;;;6.25;86.20;101398.75;5064169;28;20048;-80
2023/04/10 01:26:10;;;;;;;19.05;13.38;;;;;;;6.11;86.82;101396.31;5060850;28;20063;-80
2023/04/10 01:29:00;;;;;;;19.13;14.43;;;;;;;6.10;87.03;101392.06;5056809;28;20059;-80
2023/04/10 01:31:36;;;;;;;21.30;14.05;;;;;;;6.08;86.96;101391.34;5066629;28;20094;-79
2023/04/10 01:34:07;;;;;;;21.52;14.30;;;;;;;6.12;87.47;101387.59;5073838;28;20049;-78
2023/04/10 01:36:40;;;;;;;19.80;13.70;;;;;;;6.16;87.10;101378.63;5066565;28;20292;-79
2023/04/10 01:39:09;;;;;;;20.08;14.43;;;;;;;6.16;87.25;101386.41;5074056;28;20037;-79
2023/04/10 01:41:38;;;;;;;19.80;14.30;;;;;;;6.19;87.40;101388.78;5065260;28;20033;-79
2023/04/10 01:44:07;;;;;;;21.25;15.02;;;;;;;6.14;87.19;101387.50;5075289;28;20057;-80
2023/04/10 01:46:34;;;;;;;21.83;14.20;;;;;;;6.11;87.50;101379.91;5066476;28;20069;-79
2023/04/10 01:49:02;;;;;;;19.83;14.50;;;;;;;6.17;87.52;101369.03;5070169;28;20075;-80
2023/04/10 01:51:31;;;;;;;18.90;13.95;;;;;;;6.15;87.41;101371.75;5063866;28;20067;-79
2023/04/10 01:54:09;;;;;;;18.60;13.73;;;;;;;6.16;87.43;101365.63;5065472;28;20052;-79
2023/04/10 01:56:35;;;;;;;20.08;14.38;;;;;;;6.19;87.19;101365.41;5056012;28;20087;-79
2023/04/10 01:59:04;;;;;;;20.00;14.40;;;;;;;6.17;87.09;101367.28;5063590;28;20077;-79
2023/04/10 02:01:32;;;;;;;19.95;14.40;;;;;;;6.19;86.97;101364.56;5064648;28;20052;-79
2023/04/10 02:03:59;;;;;;;18.42;14.25;;;;;;;6.15;86.91;101369.16;5064012;28;20060;-79
2023/04/10 02:06:36;;;;;;;20.70;14.02;;;;;;;6.11;87.33;101357.34;5063085;28;20060;-79
2023/04/10 02:09:10;;;;;;;22.83;15.15;;;;;;;6.08;87.11;101349.78;5064513;28;20112;-79
2023/04/10 02:11:44;;;;;;;22.13;14.88;;;;;;;6.06;87.40;101346.44;5064763;28;20087;-80
2023/04/10 02:14:16;;;;;;;17.75;13.82;;;;;;;6.07;87.44;101357.69;5064366;28;20049;-81
2023/04/10 02:16:48;;;;;;;19.08;14.20;;;;;;;6.03;87.85;101359.66;5063839;28;20049;-81
2023/04/10 02:19:16;;;;;;;23.50;16.42;;;;;;;5.95;87.77;101351.56;5063063;28;20084;-80
2023/04/10 02:21:43;;;;;;;20.10;14.70;;;;;;;5.89;87.85;101349.41;5063778;28;20084;-79
2023/04/10 02:24:09;;;;;;;21.30;14.15;;;;;;;5.92;88.16;101338.81;5064152;28;20562;-80
2023/04/10 02:26:45;;;;;;;19.35;14.48;;;;;;;5.85;88.44;101343.56;5065082;28;20379;-80
2023/04/10 02:29:12;;;;;;;20.55;15.32;;;;;;;5.77;88.62;101340.66;5063658;28;20498;-81
2023/04/10 02:31:39;;;;;;;20.23;14.80;;;;;;;5.83;88.89;101350.63;5064115;28;20045;-80
2023/04/10 02:34:07;;;;;;;20.95;15.70;;;;;;;5.76;89.23;101351.16;5062546;28;20091;-81
2023/04/10 02:36:35;;;;;;;21.65;14.85;;;;;;;5.71;88.88;101361.88;5062500;28;20071;-79
2023/04/10 02:39:01;;;;;;;20.45;14.55;;;;;;;5.74;89.30;101368.63;5063482;28;20055;-80
2023/04/10 02:41:29;;;;;;;19.58;14.88;;;;;;;5.70;89.12;101361.97;5062887;28;20068;-80
2023/04/10 02:43:55;;;;;;;19.17;14.65;;;;;;;5.62;89.70;101362.53;5064060;28;20045;-80
2023/04/10 02:46:22;;;;;;;21.40;14.98;;;;;;;5.62;89.98;101357.34;5066632;28;20536;-80
2023/04/10 02:48:49;;;;;;;20.33;14.55;;;;;;;5.56;89.89;101343.03;5067440;28;20049;-80
2023/04/10 02:51:18;;;;;;;20.83;15.60;;;;;;;5.51;90.18;101350.28;5067805;28;20120;-81
2023/04/10 02:53:45;;;;;;;21.20;15.73;;;;;;;5.47;90.60;101342.81;5067143;28;20077;-81
2023/04/10 02:56:11;;;;;;;19.13;14.20;;;;;;;5.51;90.68;101347.69;5067599;28;20073;-80
2023/04/10 02:58:38;;;;;;;21.02;15.20;;;;;;;5.48;90.78;101345.31;5067949;28;20052;-80
2023/04/10 03:01:06;;;;;;;21.08;15.35;;;;;;;5.45;90.75;101345.53;5066871;28;20501;-79
2023/04/10 03:03:33;;;;;;;24.00;16.20;;;;;;;5.43;91.04;101342.19;5066478;28;20052;-80
2023/04/10 03:05:59;;;;;;;21.10;15.88;;;;;;;5.42;91.38;101340.53;5066546;28;20327;-79
2023/04/10 03:08:29;;;;;;;21.85;15.60;;;;;;;5.41;91.72;101338.03;5066370;28;20073;-79
2023/04/10 03:10:56;;;;;;;22.50;16.10;;;;;;;5.33;91.84;101336.81;5066410;28;20482;-79
2023/04/10 03:13:23;;;;;;;20.88;14.65;;;;;;;5.32;92.26;101344.69;5065848;28;20081;-81
2023/04/10 03:15:49;;;;;;;21.73;15.48;;;;;;;5.30;91.85;101337.00;5066530;28;20049;-80
2023/04/10 03:18:16;;;;;;;23.02;15.30;;;;;;;5.25;92.25;101333.06;5066582;28;20060;-81
2023/04/10 03:20:43;;;;;;;22.45;15.80;;;;;;;5.22;92.12;101328.91;5066557;28;20048;-80
2023/04/10 03:23:09;;;;;;;21.77;15.70;;;;;;;5.29;92.75;101324.16;5068452;28;20068;-80
2023/04/10 03:25:37;;;;;;;21.83;15.57;;;;;;;5.16;92.60;101311.19;5067173;28;20421;-80
2023/04/10 03:28:04;;;;;;;21.42;16.15;;;;;;;5.17;92.90;101312.03;5067593;28;20051;-80
2023/04/10 03:30:31;;;;;;;21.92;15.48;;;;;;;5.11;93.09;101315.03;5066546;28;20057;-79
2023/04/10 03:32:57;;;;;;;24.33;16.35;;;;;;;5.09;92.71;101306.53;5065886;28;20091;-80
2023/04/10 03:35:24;;;;;;;21.75;14.93;;;;;;;5.08;93.15;101300.50;5065852;28;20090;-79
2023/04/10 03:37:51;;;;;;;23.00;16.25;;;;;;;5.08;93.31;101312.66;5066990;28;20327;-79
2023/04/10 03:40:17;;;;;;;22.05;15.10;;;;;;;5.02;93.33;101300.09;5065966;28;20479;-79
2023/04/10 03:42:45;;;;;;;20.52;15.63;;;;;;;4.98;93.53;101300.31;5067580;28;20575;-81
2023/04/10 03:45:13;;;;;;;23.58;15.73;;;;;;;4.97;93.33;101293.44;5066759;28;20072;-81
2023/04/10 03:47:39;;;;;;;22.08;15.73;;;;;;;4.97;93.58;101285.66;5067021;28;20057;-81
2023/04/10 03:50:06;;;;;;;21.63;15.85;;;;;;;4.92;93.32;101279.13;5067345;28;20073;-82
2023/04/10 03:52:33;;;;;;;22.17;15.95;;;;;;;4.95;93.47;101282.34;5066457;28;20079;-81
2023/04/10 03:54:59;;;;;;;20.63;15.38;;;;;;;4.92;93.76;101287.75;5065784;28;20183;-80
2023/04/10 03:57:26;;;;;;;22.25;16.02;;;;;;;4.89;93.47;101287.13;5066000;28;20140;-81
2023/04/10 03:59:56;;;;;;;21.17;15.88;;;;;;;4.87;93.56;101282.03;5067056;28;20079;-80
2023/04/10 04:02:22;;;;;;;21.35;15.27;;;;;;;4.81;93.58;101277.25;5066211;28;20073;-80
2023/04/10 04:04:49;;;;;;;23.40;15.68;;;;;;;4.76;94.36;101281.91;5067202;28;20056;-80
2023/04/10 04:07:16;;;;;;;21.70;15.07;;;;;;;4.72;93.99;101277.91;5065927;28;20118;-81
2023/04/10 04:09:42;;;;;;;24.55;15.90;;;;;;;4.64;94.63;101285.34;5066047;28;20068;-80
2023/04/10 04:12:09;;;;;;;23.45;15.27;;;;;;;4.60;94.42;101286.47;5065004;28;20049;-79
2023/04/10 04:14:36;;;;;;;22.13;15.57;;;;;;;4.53;94.77;101293.84;5064957;28;20140;-80
2023/04/10 04:17:04;;;;;;;21.58;15.50;;;;;;;4.49;95.35;101291.53;5064973;28;20080;-80
2023/04/10 04:19:30;;;;;;;22.67;15.05;;;;;;;4.48;95.79;101297.66;5065212;28;20072;-79
2023/04/10 04:21:59;;;;;;;20.50;15.27;;;;;;;4.44;95.48;101293.59;5065470;28;20144;-80
2023/04/10 04:24:25;;;;;;;22.38;15.85;;;;;;;4.41;95.45;101294.63;5065087;28;20079;-80
2023/04/10 04:26:52;;;;;;;23.08;16.45;;;;;;;4.40;96.57;101282.59;5065118;28;20112;-80
2023/04/10 04:29:19;;;;;;;25.00;16.60;;;;;;;4.44;96.26;101278.88;5064247;28;20049;-80
2023/04/10 04:31:46;;;;;;;22.42;15.38;;;;;;;4.47;95.93;101278.69;5064880;28;20049;-80
2023/04/10 04:34:15;;;;;;;23.00;16.20;;;;;;;4.43;96.21;101273.78;5064108;28;20108;-80
2023/04/10 04:36:42;;;;;;;21.23;15.52;;;;;;;4.41;96.37;101268.72;5065106;28;20487;-80
2023/04/10 04:39:08;;;;;;;20.20;15.25;;;;;;;4.40;95.95;101274.00;5064091;28;20135;-80
2023/04/10 04:41:35;;;;;;;22.65;15.95;;;;;;;4.37;96.64;101274.19;5064910;28;20052;-80
2023/04/10 04:44:02;;;;;;;22.50;15.65;;;;;;;4.34;96.79;101265.69;5065776;28;20072;-80
2023/04/10 04:46:29;;;;;;;22.10;15.80;;;;;;;4.37;96.05;101269.84;5064430;28;20067;-80
2023/04/10 04:48:55;;;;;;;21.15;15.32;;;;;;;4.37;96.25;101272.44;5064314;28;20076;-80
2023/04/10 04:51:23;;;;;;;20.92;14.90;;;;;;;4.47;96.69;101272.66;5064525;28;20053;-80
2023/04/10 04:53:50;;;;;;;21.20;15.10;;;;;;;4.44;95.71;101275.47;5063841;28;20109;-80
2023/04/10 04:56:16;;;;;;;20.70;14.80;;;;;;;4.43;95.94;101277.22;5061608;28;20076;-79
2023/04/10 04:58:43;;;;;;;20.85;15.20;;;;;;;4.43;95.81;101273.78;5065294;28;20091;-80
2023/04/10 05:01:12;;;;;;;19.98;14.18;;;;;;;4.53;95.39;101280.03;5065741;28;20053;-79
2023/04/10 05:03:38;;;;;;;20.95;15.15;;;;;;;4.59;95.38;101288.25;5065354;28;20185;-79
2023/04/10 05:06:05;;;;;;;20.58;15.40;;;;;;;4.60;94.69;101278.72;5066180;28;20076;-80
2023/04/10 05:08:33;;;;;;;20.33;14.68;;;;;;;4.63;94.82;101286.28;5064233;28;20049;-80
2023/04/10 05:11:00;;;;;;;19.70;14.45;;;;;;;4.70;94.74;101277.16;5065000;28;20044;-80
2023/04/10 05:13:27;;;;;;;21.98;14.70;;;;;;;4.76;94.55;101276.72;5062013;28;20085;-79
2023/04/10 05:15:53;;;;;;;20.27;14.85;;;;;;;4.81;94.08;101279.03;5066339;28;20052;-80
2023/04/10 05:18:22;;;;;;;20.98;15.13;;;;;;;4.86;94.15;101279.53;5065343;28;20132;-79
2023/04/10 05:20:49;;;;;;;20.15;14.45;;;;;;;4.91;93.91;101278.31;5066020;28;20056;-80
2023/04/10 05:23:16;;;;;;;19.42;14.27;;;;;;;5.01;93.38;101273.31;5066917;28;20045;-80
2023/04/10 05:25:43;;;;;;;21.35;14.75;;;;;;;5.12;93.15;101270.00;5068671;28;20045;-79
2023/04/10 05:28:10;;;;;;;19.92;13.70;;;;;;;5.23;93.13;101277.84;5066204;28;20072;-80
2023/04/10 05:30:37;;;;;;;19.27;14.25;;;;;;;5.38;92.03;101273.38;5064266;28;20045;-80
2023/04/10 05:33:04;;;;;;;22.58;14.45;;;;;;;5.42;92.09;101274.81;5063166;28;20108;-80
2023/04/10 05:35:30;;;;;;;20.77;14.63;;;;;;;5.49;91.32;101258.72;5061661;28;20067;-79
2023/04/10 05:37:57;;;;;;;23.23;15.13;;;;;;;5.70;90.39;101277.13;5059650;28;20052;-79
2023/04/10 05:40:25;;;;;;;19.98;15.00;;;;;;;5.79;90.04;101276.47;5060728;28;20049;-80
2023/04/10 05:42:53;;;;;;;20.52;13.68;;;;;;;5.90;89.73;101279.16;5058293;28;20045;-80
2023/04/10 05:45:19;;;;;;;20.92;14.50;;;;;;;5.98;89.47;101281.22;5058333;28;20057;-78
2023/04/10 05:47:46;;;;;;;18.95;13.88;;;;;;;6.12;88.86;101282.81;5058865;28;20052;-79
2023/04/10 05:50:13;;;;;;;20.73;13.77;;;;;;;6.30;88.21;101276.28;5058644;28;20099;-78
2023/04/10 05:52:39;;;;;;;17.95;13.68;;;;;;;6.22;87.37;101269.03;5059424;28;20084;-79
2023/04/10 05:55:07;;;;;;;17.92;13.32;;;;;;;6.11;87.31;101270.78;5059906;28;20083;-78
2023/04/10 05:57:34;;;;;;;19.98;13.13;;;;;;;6.31;86.70;101267.53;5058965;28;20077;-79
2023/04/10 06:00:02;;;;;;;17.95;13.55;;;;;;;6.48;86.67;101263.69;5058004;28;20128;-78
2023/04/10 06:02:28;;;;;;;18.38;13.90;;;;;;;6.48;86.16;101254.13;5058729;28;20045;-79
2023/04/10 06:04:55;;;;;;;18.90;13.77;;;;;;;6.41;86.37;101249.50;5061116;28;20292;-80
2023/04/10 06:07:22;;;;;;;19.05;13.52;;;;;;;6.44;86.13;101251.88;5060759;28;20052;-79
2023/04/10 06:09:49;;;;;;;19.88;12.80;;;;;;;6.54;86.18;101256.25;5061211;28;20163;-79
2023/04/10 06:12:16;;;;;;;17.75;13.55;;;;;;;6.89;85.91;101248.38;5060094;28;20048;-80
2023/04/10 06:14:42;;;;;;;18.25;12.32;;;;;;;7.41;85.04;101249.56;5060779;28;20087;-80
2023/04/10 06:17:10;;;;;;;17.40;12.57;;;;;;;8.11;83.14;101243.06;5060547;28;20131;-80
2023/04/10 06:19:37;;;;;;;18.95;12.23;;;;;;;8.29;81.52;101238.97;5052884;28;20091;-80
2023/04/10 06:22:03;;;;;;;19.85;12.80;;;;;;;8.65;79.91;101232.50;5063061;28;20556;-79
2023/04/10 06:24:30;;;;;;;15.43;11.88;;;;;;;9.32;78.09;101229.34;5062174;28;20114;-79
2023/04/10 06:26:57;;;;;;;15.10;11.93;;;;;;;9.54;77.37;101234.31;5061938;28;20477;-80
2023/04/10 06:29:24;;;;;;;15.02;11.45;;;;;;;10.97;74.51;101234.34;5062145;28;20110;-80
2023/04/10 06:31:50;;;;;;;13.93;11.18;;;;;;;11.86;71.17;101231.13;5061483;28;20045;-80
2023/04/10 06:34:18;;;;;;;16.08;12.32;;;;;;;11.79;70.04;101225.66;5060787;28;20128;-79
2023/04/10 06:36:45;;;;;;;13.57;11.63;;;;;;;11.48;70.14;101229.56;5062806;28;20452;-78
2023/04/10 06:39:12;;;;;;;14.30;11.60;;;;;;;12.47;68.73;101246.06;5061345;28;20096;-77
2023/04/10 06:41:38;;;;;;;13.27;11.30;;;;;;;12.69;67.21;101224.56;5060592;28;20513;-79
2023/04/10 06:44:05;;;;;;;16.25;11.98;;;;;;;12.27;66.57;101227.88;5062716;28;20556;-79
2023/04/10 06:46:31;;;;;;;15.65;11.85;;;;;;;11.65;67.85;101231.38;5064353;28;20104;-78
2023/04/10 06:48:58;;;;;;;14.45;11.82;;;;;;;11.29;68.10;101233.13;5064124;28;20127;-79
2023/04/10 06:51:26;;;;;;;15.48;11.80;;;;;;;11.70;67.78;101229.16;5063283;28;20115;-79
2023/04/10 06:53:52;;;;;;;14.55;11.63;;;;;;;11.74;67.75;101229.69;5063795;28;20128;-78
2023/04/10 06:56:19;;;;;;;16.35;11.80;;;;;;;11.50;67.26;101225.81;5064076;28;20084;-79
2023/04/10 06:58:46;;;;;;;15.77;11.95;;;;;;;12.19;66.52;101229.63;5064238;28;20056;-79
2023/04/10 07:01:16;;;;;;;13.63;11.43;;;;;;;11.63;66.99;101228.09;5064223;28;20049;-79
2023/04/10 07:03:43;;;;;;;14.05;11.70;;;;;;;12.65;65.99;101231.09;5063702;28;20045;-79
2023/04/10 07:06:10;;;;;;;14.57;11.32;;;;;;;12.78;65.04;101220.97;5063725;28;20105;-79
2023/04/10 07:08:38;;;;;;;14.00;11.27;;;;;;;12.45;64.66;101216.50;5065157;28;20374;-80
2023/04/10 07:11:05;;;;;;;13.13;11.02;;;;;;;12.74;64.38;101221.47;5063166;28;20127;-79
2023/04/10 07:13:31;;;;;;;13.52;11.35;;;;;;;12.32;64.29;101219.53;5064120;28;20055;-80
2023/04/10 07:15:58;;;;;;;16.98;11.88;;;;;;;11.96;65.55;101231.88;5064560;28;20136;-80
2023/04/10 07:18:25;;;;;;;13.82;11.20;;;;;;;11.72;66.13;101218.50;5065458;28;20083;-80
2023/04/10 07:20:52;;;;;;;15.25;10.98;;;;;;;12.47;64.73;101219.81;5064221;28;20044;-80
2023/04/10 07:23:19;;;;;;;14.02;11.30;;;;;;;12.78;63.73;101210.47;5063053;28;20167;-80
2023/04/10 07:25:47;;;;;;;13.52;11.23;;;;;;;12.50;64.66;101215.06;5065278;28;20056;-79
2023/04/10 07:28:14;;;;;;;12.20;10.48;;;;;;;12.22;64.72;101211.78;5062927;28;20088;-77
2023/04/10 07:30:40;;;;;;;13.35;11.13;;;;;;;12.05;65.63;101220.47;5063208;28;20088;-79
2023/04/10 07:33:07;;;;;;;14.07;11.85;;;;;;;12.22;65.71;101217.03;5063453;28;20119;-79
2023/04/10 07:35:34;;;;;;;14.80;11.10;;;;;;;12.19;65.23;101208.63;5064160;28;20083;-79
2023/04/10 07:38:01;;;;;;;14.88;11.60;;;;;;;12.65;64.57;101204.84;5063775;28;20114;-79
2023/04/10 07:40:27;;;;;;;13.75;11.05;;;;;;;12.95;63.13;101182.47;5063869;28;20109;-79
2023/04/10 07:42:55;;;;;;;13.02;10.48;;;;;;;12.77;63.52;101200.94;5064232;28;20053;-78
2023/04/10 07:45:22;;;;;;;13.90;11.45;;;;;;;12.87;63.70;101195.56;5063463;28;20110;-79
2023/04/10 07:47:49;;;;;;;13.02;10.70;;;;;;;12.88;62.80;101176.22;5063759;28;20112;-78
2023/04/10 07:50:16;;;;;;;13.07;10.05;;;;;;;12.96;62.69;101174.44;5062569;28;20113;-79
2023/04/10 07:52:42;;;;;;;13.35;10.27;;;;;;;12.93;62.51;101177.38;5063681;28;20059;-79
2023/04/10 07:55:09;;;;;;;13.05;10.30;;;;;;;12.21;63.32;101177.81;5061729;28;20104;-81
2023/04/10 07:57:36;;;;;;;12.75;9.90;;;;;;;13.15;62.96;101183.06;5055457;28;20119;-79
2023/04/10 08:00:05;;;;;;;14.40;10.32;;;;;;;13.68;61.67;101159.06;5063445;28;20049;-79
2023/04/10 08:02:32;;;;;;;12.55;9.98;;;;;;;13.51;61.43;101162.63;5062169;28;20079;-79
2023/04/10 08:04:58;;;;;;;13.80;9.68;;;;;;;13.84;60.63;101152.94;5062481;28;20076;-80
2023/04/10 08:07:25;;;;;;;13.00;10.43;;;;;;;13.27;61.14;101158.13;5064001;28;20461;-79
2023/04/10 08:09:52;;;;;;;13.40;10.30;;;;;;;13.29;61.39;101164.06;5063035;28;20045;-80
2023/04/10 08:12:25;;;;;;;13.77;10.32;;;;;;;13.40;60.73;101161.13;5061537;28;20055;-80
2023/04/10 08:14:51;;;;;;;13.38;9.93;;;;;;;13.67;60.73;101152.16;5060781;28;20045;-79
2023/04/10 08:17:19;;;;;;;12.45;10.15;;;;;;;13.32;60.68;101153.22;5060987;28;20121;-78
2023/04/10 08:19:46;;;;;;;13.82;10.13;;;;;;;13.47;61.15;101156.06;5061536;28;20072;-80
2023/04/10 08:22:13;;;;;;;11.40;9.38;;;;;;;13.54;61.18;101147.38;5061686;28;20049;-79
2023/04/10 08:24:39;;;;;;;13.52;9.93;;;;;;;13.55;60.58;101143.75;5061232;28;20052;-79
2023/04/10 08:27:06;;;;;;;10.98;9.15;;;;;;;13.90;59.79;101126.00;5061206;28;20149;-79
2023/04/10 08:29:32;;;;;;;10.82;9.05;;;;;;;13.72;60.54;101134.03;5060610;28;20093;-80
2023/04/10 08:31:59;;;;;;;11.55;9.55;;;;;;;13.89;59.64;101130.44;5063648;28;20048;-80
2023/04/10 08:34:28;;;;;;;12.40;9.18;;;;;;;13.85;60.05;101129.13;5062868;28;20103;-79
2023/04/10 08:36:54;;;;;;;12.98;9.80;;;;;;;13.61;61.12;101142.28;5065824;28;20045;-80
2023/04/10 08:39:21;;;;;;;12.98;8.93;;;;;;;13.81;59.96;101127.78;5064829;28;20076;-81
2023/04/10 08:41:48;;;;;;;10.65;8.98;;;;;;;13.35;59.67;101120.53;5063582;28;20068;-79
2023/04/10 08:44:14;;;;;;;10.90;9.02;;;;;;;13.42;59.49;101111.03;5058724;28;20088;-80
2023/04/10 08:46:43;;;;;;;10.70;8.68;;;;;;;14.04;59.24;101112.16;5058689;28;20079;-78
2023/04/10 08:49:11;;;;;;;11.15;8.82;;;;;;;14.33;59.36;101105.53;5057287;28;20107;-76
2023/04/10 08:51:46;;;;;;;12.55;7.97;;;;;;;14.24;59.84;101102.91;5056656;28;20503;-78
2023/04/10 08:54:18;;;;;;;11.55;8.32;;;;;;;13.55;59.08;101087.72;5055056;28;20468;-78
2023/04/10 08:56:49;;;;;;;9.77;8.57;;;;;;;13.17;59.18;101086.53;5055405;28;20049;-78
2023/04/10 08:59:16;;;;;;;11.00;8.02;;;;;;;13.19;58.96;101068.81;5054598;28;20101;-79
2023/04/10 09:01:43;;;;;;;9.52;7.95;;;;;;;13.20;58.44;101067.81;5055072;28;20049;-79
2023/04/10 09:04:11;;;;;;;9.65;7.70;;;;;;;13.75;58.40;101064.50;5055247;28;20108;-79
2023/04/10 09:06:40;;;;;;;9.40;7.78;;;;;;;13.59;58.48;101055.66;5055794;28;20158;-77
2023/04/10 09:09:07;;;;;;;9.43;7.70;;;;;;;13.87;59.06;101063.19;5056369;28;20098;-79
2023/04/10 09:11:59;;;;;;;9.68;8.02;;;;;;;13.71;57.97;101053.50;5058921;28;20080;-79
2023/04/10 09:14:27;;;;;;;8.77;7.40;;;;;;;13.85;58.14;101059.91;5057598;28;20049;-79
2023/04/10 09:16:54;;;;;;;9.13;7.45;;;;;;;14.18;57.73;101060.63;5058878;28;20049;-78
2023/04/10 09:19:30;;;;;;;8.60;7.30;;;;;;;14.38;57.39;101050.56;5058101;28;20052;-79
2023/04/10 09:21:58;;;;;;;8.70;7.28;;;;;;;14.41;57.07;101052.84;5058115;28;20053;-79
2023/04/10 09:24:25;;;;;;;8.95;7.30;;;;;;;14.77;57.46;101066.38;5057693;28;20127;-79
2023/04/10 09:26:52;;;;;;;9.98;7.80;;;;;;;14.26;56.70;101058.81;5057048;28;20072;-79
2023/04/10 09:29:19;;;;;;;9.85;7.70;;;;;;;15.00;56.94;101072.50;5058300;28;20076;-79
2023/04/10 09:31:46;;;;;;;9.68;7.35;;;;;;;15.35;55.55;101057.91;5058477;28;20048;-80
2023/04/10 09:34:15;;;;;;;8.80;7.55;;;;;;;14.77;55.70;101075.09;5057356;28;20128;-80
2023/04/10 09:36:42;;;;;;;9.48;6.82;;;;;;;14.58;56.15;101062.34;5057568;28;20045;-79
2023/04/10 09:39:11;;;;;;;9.60;7.28;;;;;;;14.91;55.39;101058.56;5057258;28;20092;-78
2023/04/10 09:41:49;;;;;;;10.63;7.30;;;;;;;14.92;55.06;101060.19;5050550;28;20359;-79
2023/04/10 09:44:18;;;;;;;8.55;7.30;;;;;;;14.70;55.11;101049.59;5057287;28;20073;-79
2023/04/10 09:46:45;;;;;;;9.38;7.22;;;;;;;14.69;56.18;101046.16;5057199;28;20056;-78
2023/04/10 09:49:11;;;;;;;8.38;7.00;;;;;;;14.84;55.28;101033.88;5058477;28;20048;-81
2023/04/10 09:51:42;;;;;;;9.13;7.35;;;;;;;14.77;55.63;101030.31;5058967;28;20072;-80
2023/04/10 09:54:12;;;;;;;9.18;7.38;;;;;;;15.03;56.52;101044.97;5060830;28;20412;-79
2023/04/10 09:56:39;;;;;;;9.05;7.28;;;;;;;14.91;55.76;101026.09;5054853;28;20126;-78
2023/04/10 09:59:07;;;;;;;8.00;6.85;;;;;;;14.87;55.13;101030.91;5061714;28;20052;-79
2023/04/10 10:01:34;;;;;;;9.85;7.18;;;;;;;14.80;54.69;101024.69;5063091;28;20136;-79
2023/04/10 10:04:02;;;;;;;9.13;7.28;;;;;;;15.60;54.45;101016.34;5074702;28;20037;-79
2023/04/10 10:06:31;;;;;;;8.40;7.07;;;;;;;15.25;54.84;101009.88;5077365;28;20045;-80
2023/04/10 10:09:03;;;;;;;8.27;6.72;;;;;;;15.17;55.06;101007.31;5077429;28;20548;-79
2023/04/10 10:11:34;;;;;;;8.25;7.18;;;;;;;15.25;55.60;101015.16;5076476;28;20041;-78
2023/04/10 10:14:03;;;;;;;8.18;6.72;;;;;;;15.06;55.32;101007.75;5073901;28;20045;-79
2023/04/10 10:16:37;;;;;;;8.50;6.90;;;;;;;15.16;55.98;101010.94;5076312;28;20079;-78
2023/04/10 10:19:10;;;;;;;8.30;7.03;;;;;;;15.40;55.66;101000.19;5075292;28;20045;-77
2023/04/10 10:21:38;;;;;;;7.80;6.90;;;;;;;15.18;54.97;100993.94;5073455;28;20045;-78
2023/04/10 10:24:08;;;;;;;8.00;6.65;;;;;;;15.46;55.21;100988.94;5072084;28;20076;-79
2023/04/10 10:26:39;;;;;;;7.97;6.80;;;;;;;15.56;54.89;100984.25;5070262;28;20108;-80
2023/04/10 10:29:09;;;;;;;8.45;6.70;;;;;;;15.59;54.96;100978.63;5068330;28;20045;-80
2023/04/10 10:31:36;;;;;;;7.95;7.15;;;;;;;15.23;54.56;100965.25;5065721;28;20189;-80
2023/04/10 10:34:06;;;;;;;8.07;6.90;;;;;;;15.65;54.93;100960.41;5062805;28;20053;-80
2023/04/10 10:36:33;;;;;;;7.75;6.53;;;;;;;15.79;54.71;100956.97;5062896;28;20122;-82
2023/04/10 10:39:10;;;;;;;8.98;6.90;;;;;;;15.77;54.84;100945.78;5062990;28;20568;-80
2023/04/10 10:41:43;;;;;;;7.78;6.35;;;;;;;15.62;54.45;100929.94;5063230;28;20131;-80
2023/04/10 10:44:16;;;;;;;7.53;6.40;;;;;;;15.72;54.39;100927.03;5063202;28;20132;-80
2023/04/10 10:46:48;;;;;;;8.88;6.90;;;;;;;15.83;54.24;100923.94;5061619;28;20045;-80
2023/04/10 10:49:15;;;;;;;8.57;6.57;;;;;;;15.86;54.50;100905.13;5059898;28;20083;-80
2023/04/10 10:51:47;;;;;;;8.10;6.72;;;;;;;15.99;53.53;100905.28;5060429;28;20052;-79
2023/04/10 10:54:30;;;;;;;7.85;6.78;;;;;;;16.02;54.16;100899.63;5059568;28;20395;-78
2023/04/10 10:56:59;;;;;;;7.63;6.35;;;;;;;15.93;54.54;100895.47;5060040;28;20139;-78
2023/04/10 10:59:55;;;;;;;8.15;7.00;;;;;;;15.85;54.17;100879.72;5059780;28;20500;-77
2023/04/10 11:02:23;;;;;;;7.97;6.20;;;;;;;15.73;53.82;100878.53;5060112;28;20091;-79
2023/04/10 11:04:50;;;;;;;8.38;6.72;;;;;;;15.70;53.97;100863.91;5059793;28;20132;-79
2023/04/10 11:07:17;;;;;;;10.95;6.43;;;;;;;16.10;54.01;100870.47;5061171;28;20049;-80
2023/04/10 11:09:46;;;;;;;7.22;6.22;;;;;;;16.09;54.20;100866.19;5061190;28;20041;-80
2023/04/10 11:12:14;;;;;;;8.07;6.35;;;;;;;16.33;54.11;100854.47;5061414;28;20112;-80
2023/04/10 11:15:39;;;;;;;9.75;6.78;;;;;;;16.49;53.95;100853.41;5072311;28;20536;-82
2023/04/10 11:19:02;;;;;;;8.00;7.10;;;;;;;16.60;53.07;100858.16;5070957;28;20040;-80
2023/04/10 11:21:29;;;;;;;7.28;6.13;;;;;;;16.45;52.98;100849.50;5051966;28;20049;-79
2023/04/10 11:24:04;;;;;;;8.45;6.30;;;;;;;16.45;51.90;100839.78;5060264;28;20132;-80